Time;durP1;ratioP1;P1;durP2;ratioP2;P2;SDS_P1;SDS_P2;PMS_P1;PMS_P2;Temp;Humidity;BMP_temperature;BMP_pressure;BME280_temperature;BME280_humidity;BME280_pressure;Samples;Min_cycle;Max_cycle;Signal;HPM_P1;HPM_P2
2022/09/19 00:00:42;;;;;;;;;;;;;;;21.51;94.64;99172.31;5042786;28;20311;-59
2022/09/19 00:03:41;;;;;;;1.00;0.70;;;;;;;21.49;93.93;99155.69;5084912;28;19916;-60
2022/09/19 00:06:22;;;;;;;5.03;0.80;;;;;;;21.39;93.73;99151.19;5047247;28;20287;-60
2022/09/19 00:09:07;;;;;;;2.10;0.67;;;;;;;21.27;93.94;99147.69;5082774;28;20359;-60
2022/09/19 00:11:46;;;;;;;2.83;0.70;;;;;;;21.15;94.24;99148.63;5085462;28;20326;-60
2022/09/19 00:14:33;;;;;;;4.07;0.83;;;;;;;21.24;93.95;99138.13;5083182;28;20286;-59
2022/09/19 00:17:17;;;;;;;5.70;1.38;;;;;;;21.26;93.67;99156.59;5083430;28;20051;-60
2022/09/19 00:20:16;;;;;;;1.37;0.90;;;;;;;21.39;93.64;99149.41;5086018;28;20079;-59
2022/09/19 00:25:44;;;;;;;1.60;0.80;;;;;;;21.62;92.96;99120.16;5079865;28;20302;-59
2022/09/19 00:28:27;;;;;;;4.70;1.10;;;;;;;21.70;91.71;99128.34;5084576;28;20298;-61
2022/09/19 00:31:07;;;;;;;2.63;1.00;;;;;;;21.69;91.97;99134.63;5079762;28;20666;-59
2022/09/19 00:33:46;;;;;;;4.00;1.00;;;;;;;21.57;92.22;99132.94;5086076;28;20318;-60
2022/09/19 00:36:28;;;;;;;1.20;0.77;;;;;;;21.59;92.87;99120.38;5084018;28;20056;-59
2022/09/19 00:39:31;;;;;;;2.23;1.00;;;;;;;21.58;92.17;99094.78;5083302;28;20313;-59
2022/09/19 00:42:14;;;;;;;2.27;0.90;;;;;;;21.61;91.88;99082.06;5084717;28;20282;-60
2022/09/19 00:45:01;;;;;;;1.80;0.80;;;;;;;21.74;91.43;99061.50;5083001;28;20595;-60
2022/09/19 00:50:43;;;;;;;3.00;1.00;;;;;;;22.00;88.72;99074.47;5084102;28;20297;-59
2022/09/19 00:53:37;;;;;;;3.20;0.90;;;;;;;21.82;88.44;99030.78;5081376;28;20282;-59
2022/09/19 00:59:17;;;;;;;1.83;1.10;;;;;;;21.86;89.40;99064.97;5085402;28;20324;-60
2022/09/19 01:05:16;;;;;;;2.80;1.27;;;;;;;21.85;89.32;99057.97;5083421;28;20306;-58
2022/09/19 01:08:14;;;;;;;1.63;1.03;;;;;;;21.76;89.13;99042.75;5083396;28;20052;-58
2022/09/19 01:11:17;;;;;;;2.50;1.07;;;;;;;21.60;89.91;99048.50;5082609;28;20120;-59
2022/09/19 01:14:08;;;;;;;2.47;1.13;;;;;;;21.44;89.34;99038.28;5081491;28;20060;-58
2022/09/19 01:17:19;;;;;;;1.57;1.23;;;;;;;21.42;90.44;99053.50;5044029;28;20112;-59
2022/09/19 01:20:42;;;;;;;4.70;1.43;;;;;;;21.09;90.53;99001.19;5063906;28;20089;-59
2022/09/19 01:24:27;;;;;;;3.47;1.10;;;;;;;21.49;89.81;99065.31;5053257;28;20048;-60
2022/09/19 01:27:35;;;;;;;3.43;1.53;;;;;;;21.49;89.45;99070.63;5079969;28;20049;-59
2022/09/19 01:30:29;;;;;;;3.53;1.20;;;;;;;21.67;90.32;99078.09;5080784;28;20044;-59
2022/09/19 01:33:19;;;;;;;1.87;1.40;;;;;;;21.60;90.32;99051.16;5081136;28;20048;-59
2022/09/19 01:36:21;;;;;;;5.97;1.50;;;;;;;21.77;89.95;99087.00;5080768;28;20275;-58
2022/09/19 01:39:13;;;;;;;5.77;1.93;;;;;;;21.82;89.52;99079.50;5049478;28;20067;-60
2022/09/19 01:42:06;;;;;;;3.40;1.63;;;;;;;21.77;89.26;99060.41;5080866;28;20293;-61
2022/09/19 01:44:45;;;;;;;4.83;1.60;;;;;;;21.66;89.60;99034.69;5084383;28;20048;-61
2022/09/19 01:47:40;;;;;;;5.07;1.50;;;;;;;21.77;88.89;99071.06;5084811;28;20072;-61
2022/09/19 01:53:45;;;;;;;5.23;1.90;;;;;;;21.39;89.73;99021.84;5084036;28;20068;-60
2022/09/19 01:56:46;;;;;;;8.87;1.90;;;;;;;21.42;90.13;99040.19;5016656;28;20313;-59
2022/09/19 01:59:46;;;;;;;5.97;2.00;;;;;;;21.48;90.06;99034.38;5059424;28;20056;-61
2022/09/19 02:02:48;;;;;;;5.37;1.87;;;;;;;21.42;90.39;99013.63;5052105;28;20307;-60
2022/09/19 02:05:42;;;;;;;5.03;1.80;;;;;;;21.58;90.32;99007.06;5082606;28;20275;-62
2022/09/19 02:08:36;;;;;;;7.83;1.80;;;;;;;21.47;90.88;98995.50;5057457;28;20067;-61
2022/09/19 02:11:27;;;;;;;4.93;1.70;;;;;;;21.42;91.24;98981.75;5057231;28;20360;-59
2022/09/19 02:14:18;;;;;;;6.30;2.00;;;;;;;21.34;91.66;98989.44;5082113;28;20305;-58
2022/09/19 02:17:08;;;;;;;7.00;1.97;;;;;;;21.24;91.26;98989.38;5084086;28;20314;-61
2022/09/19 02:20:01;;;;;;;;;;;;;;;21.15;91.58;98983.97;5046893;28;20603;-60
2022/09/19 02:22:48;;;;;;;6.37;2.03;;;;;;;20.97;92.09;98965.88;5044249;28;19923;-61
2022/09/19 02:25:45;;;;;;;3.70;1.80;;;;;;;20.82;92.75;98940.56;5062273;28;20298;-61
2022/09/19 02:28:39;;;;;;;4.90;2.10;;;;;;;20.73;92.81;98914.72;5052290;28;20290;-61
2022/09/19 02:31:30;;;;;;;4.37;1.80;;;;;;;20.85;92.89;98962.38;5030307;28;20506;-62
2022/09/19 02:34:10;;;;;;;5.80;2.03;;;;;;;21.05;92.57;98974.06;5083351;28;20298;-61
2022/09/19 02:36:58;;;;;;;3.80;2.10;;;;;;;21.27;92.02;98983.81;5040418;28;20406;-62
2022/09/19 02:39:49;;;;;;;7.27;1.83;;;;;;;21.21;91.07;99021.47;5083365;28;20390;-60
2022/09/19 02:45:46;;;;;;;4.63;1.70;;;;;;;20.91;92.37;98982.28;5082497;28;20115;-60
2022/09/19 02:48:33;;;;;;;5.30;1.93;;;;;;;20.86;93.19;98995.06;5040891;28;20298;-60
2022/09/19 02:51:18;;;;;;;6.30;1.77;;;;;;;20.98;93.63;98994.09;5083264;28;20275;-60
2022/09/19 02:54:07;;;;;;;4.07;1.87;;;;;;;21.03;93.55;98997.22;5073568;28;20245;-62
2022/09/19 02:56:47;;;;;;;6.40;2.07;;;;;;;21.07;93.40;98998.69;5083247;28;20294;-63
2022/09/19 02:59:51;;;;;;;5.63;1.80;;;;;;;21.00;93.58;98994.00;5082432;28;20325;-62
2022/09/19 03:02:42;;;;;;;5.07;2.03;;;;;;;21.06;93.65;98958.97;5082921;28;20287;-59
2022/09/19 03:11:42;;;;;;;;;;;;;;;;;;;;;
2022/09/19 03:14:35;;;;;;;7.57;2.30;;;;;;;21.11;93.46;98973.56;5008829;28;20299;-64
2022/09/19 03:20:24;;;;;;;6.82;2.10;;;;;;;20.51;94.17;98857.19;5025489;28;20296;-60
2022/09/19 03:23:02;;;;;;;11.90;2.87;;;;;;;20.71;94.62;98890.13;5026816;28;20207;-61
2022/09/19 03:25:41;;;;;;;6.57;2.17;;;;;;;20.56;95.10;98882.41;5025497;28;20285;-61
2022/09/19 03:28:39;;;;;;;6.20;2.57;;;;;;;20.42;95.81;98877.34;5025294;28;20582;-61
2022/09/19 03:31:25;;;;;;;7.77;2.43;;;;;;;20.29;95.97;98864.19;5008443;28;20315;-61
2022/09/19 03:34:33;;;;;;;5.53;3.00;;;;;;;20.07;96.26;98854.44;5025894;28;20350;-60
2022/09/19 03:37:17;;;;;;;9.20;2.60;;;;;;;20.17;96.49;98889.88;5026367;28;20293;-63
2022/09/19 03:40:05;;;;;;;3.83;2.27;;;;;;;20.11;96.61;98882.38;4988682;28;20594;-61
2022/09/19 03:42:55;;;;;;;5.03;2.33;;;;;;;20.04;96.60;98902.38;5011084;28;20352;-63
2022/09/19 03:46:01;;;;;;;4.43;2.70;;;;;;;19.93;97.20;98875.84;5026427;28;20335;-62
2022/09/19 03:48:40;;;;;;;3.80;2.30;;;;;;;19.92;97.98;98887.41;5028134;28;20284;-61
2022/09/19 03:51:24;;;;;;;7.07;2.67;;;;;;;19.86;98.51;98864.03;5020706;28;20295;-60
2022/09/19 03:54:21;;;;;;;7.73;2.67;;;;;;;19.88;99.36;98870.06;5005947;28;20330;-62
2022/09/19 03:57:12;;;;;;;7.40;2.97;;;;;;;19.82;100.00;98813.91;5022723;28;20285;-62
2022/09/19 04:00:15;;;;;;;8.13;3.10;;;;;;;19.85;100.00;98843.81;5026487;28;20308;-60
2022/09/19 04:03:12;;;;;;;7.43;2.95;;;;;;;19.90;100.00;98857.56;5026115;28;20276;-60
2022/09/19 04:06:03;;;;;;;;;;;;;;;19.89;100.00;98867.28;5027495;28;20117;-62
2022/09/19 04:08:38;;;;;;;3.47;2.63;;;;;;;19.87;100.00;98878.97;5005727;28;19917;-61
2022/09/19 04:11:44;;;;;;;7.37;3.10;;;;;;;19.86;100.00;98851.63;5025791;28;20281;-61
2022/09/19 04:14:26;;;;;;;8.23;3.40;;;;;;;19.83;100.00;98842.09;5025144;28;20280;-63
2022/09/19 04:17:19;;;;;;;5.03;3.40;;;;;;;19.82;100.00;98835.13;5026993;28;20309;-61
2022/09/19 04:20:01;;;;;;;4.53;2.70;;;;;;;19.82;100.00;98824.53;5025400;28;20885;-62
2022/09/19 04:25:46;;;;;;;5.60;2.90;;;;;;;19.78;100.00;98838.97;5051937;28;20301;-62
2022/09/19 04:28:28;;;;;;;5.63;2.97;;;;;;;19.80;100.00;98847.66;5077016;28;20286;-61
2022/09/19 04:31:09;;;;;;;3.67;2.83;;;;;;;19.78;100.00;98865.47;5078907;28;20314;-61
2022/09/19 04:33:47;;;;;;;6.85;2.97;;;;;;;19.77;100.00;98869.09;5077243;28;20291;-62
2022/09/19 04:36:39;;;;;;;6.30;3.00;;;;;;;19.74;100.00;98874.59;5032584;28;20128;-62
2022/09/19 04:39:16;;;;;;;6.50;3.20;;;;;;;19.71;100.00;98874.84;5078336;28;20349;-63
2022/09/19 04:42:03;;;;;;;6.83;2.77;;;;;;;19.71;100.00;98898.69;5076876;28;20287;-61
2022/09/19 04:47:41;;;;;;;7.70;3.10;;;;;;;19.66;100.00;98902.63;5073569;28;20124;-59
2022/09/19 04:50:20;;;;;;;8.00;3.50;;;;;;;19.63;100.00;98919.59;5076789;28;20480;-62
2022/09/19 04:53:16;;;;;;;9.30;4.00;;;;;;;19.61;100.00;98926.81;5078064;28;20506;-62
2022/09/19 04:56:18;;;;;;;10.77;4.53;;;;;;;19.53;100.00;98929.19;5079088;28;20290;-63
2022/09/19 04:58:56;;;;;;;11.33;4.53;;;;;;;19.45;100.00;98931.59;5057337;28;20321;-61
2022/09/19 05:01:47;;;;;;;12.10;4.80;;;;;;;19.24;100.00;98851.91;5015178;28;20360;-60
2022/09/19 05:04:26;;;;;;;9.53;4.40;;;;;;;19.25;100.00;98850.97;5077271;28;20294;-60
2022/09/19 05:07:40;;;;;;;9.45;4.20;;;;;;;19.18;100.00;98824.94;5076100;28;20279;-62
2022/09/19 05:10:29;;;;;;;10.23;4.17;;;;;;;19.15;100.00;98782.81;5042142;28;20112;-61
2022/09/19 05:13:21;;;;;;;6.97;3.67;;;;;;;19.14;100.00;98793.50;5077528;28;20333;-61
2022/09/19 05:16:09;;;;;;;8.07;4.05;;;;;;;19.17;100.00;98770.28;5078518;28;20286;-61
2022/09/19 05:19:09;;;;;;;10.57;3.70;;;;;;;19.22;100.00;98735.53;5079137;28;20099;-61
2022/09/19 05:21:44;;;;;;;6.97;4.00;;;;;;;19.25;100.00;98798.00;5078924;28;20673;-60
2022/09/19 05:24:41;;;;;;;6.00;3.23;;;;;;;19.25;100.00;98830.63;5077474;28;20290;-61
2022/09/19 05:27:44;;;;;;;9.90;3.60;;;;;;;19.18;100.00;98861.16;5054996;28;20291;-62
2022/09/19 05:30:36;;;;;;;6.57;4.10;;;;;;;19.18;100.00;98855.88;5030554;28;20287;-63
2022/09/19 05:33:18;;;;;;;5.00;3.13;;;;;;;19.06;100.00;98831.13;5029940;28;20283;-62
2022/09/19 05:36:07;;;;;;;6.67;3.37;;;;;;;19.14;100.00;98843.81;5078186;28;20303;-60
2022/09/19 05:38:50;;;;;;;6.53;3.43;;;;;;;19.13;100.00;98860.66;5078480;28;20283;-61
2022/09/19 05:41:43;;;;;;;7.63;3.70;;;;;;;19.13;100.00;98879.19;5077701;28;20311;-62
2022/09/19 05:44:35;;;;;;;5.77;3.40;;;;;;;19.11;100.00;98817.56;5004852;28;20432;-61
2022/09/19 05:47:15;;;;;;;5.73;3.30;;;;;;;18.83;100.00;98761.38;5042802;28;20325;-60
2022/09/19 05:56:08;;;;;;;6.90;3.70;;;;;;;19.04;100.00;98874.56;5078648;28;21019;-61
2022/09/19 05:58:57;;;;;;;7.17;4.00;;;;;;;19.03;100.00;98888.78;5077653;28;20279;-62
2022/09/19 06:04:30;;;;;;;8.77;4.50;;;;;;;18.89;100.00;98872.06;5079106;28;20293;-62
2022/09/19 06:07:24;;;;;;;9.70;4.83;;;;;;;18.72;100.00;98838.03;5075521;28;20338;-61
2022/09/19 06:10:17;;;;;;;10.50;4.43;;;;;;;18.72;100.00;98822.16;5078398;28;20297;-61
2022/09/19 06:15:51;;;;;;;7.83;4.23;;;;;;;18.75;100.00;98886.31;5054904;28;20357;-62
2022/09/19 06:18:30;;;;;;;11.13;4.40;;;;;;;18.76;100.00;98844.81;5058789;28;20310;-61
2022/09/19 06:21:20;;;;;;;8.17;3.93;;;;;;;18.68;100.00;98826.00;5056810;28;20309;-60
2022/09/19 06:24:07;;;;;;;10.18;3.97;;;;;;;18.63;100.00;98844.00;5030195;28;20288;-61
2022/09/19 06:26:56;;;;;;;6.57;3.90;;;;;;;18.57;100.00;98817.97;5043446;28;20073;-61
2022/09/19 06:29:33;;;;;;;7.20;3.77;;;;;;;18.51;100.00;98830.69;5039949;28;20079;-60
2022/09/19 06:32:40;;;;;;;8.90;3.93;;;;;;;18.45;100.00;98841.72;5059788;28;20272;-60
2022/09/19 06:35:44;;;;;;;7.80;3.80;;;;;;;18.39;100.00;98826.28;5061241;28;20605;-61
2022/09/19 06:38:25;;;;;;;8.27;3.60;;;;;;;18.42;100.00;98841.94;5061680;28;20287;-62
2022/09/19 06:41:15;;;;;;;6.23;3.70;;;;;;;18.41;100.00;98813.78;5050494;28;20072;-62
2022/09/19 06:44:03;;;;;;;7.67;3.63;;;;;;;18.37;100.00;98796.47;5060140;28;20304;-62
2022/09/19 06:47:29;;;;;;;8.47;4.23;;;;;;;18.33;100.00;98768.56;5005066;28;20315;-59
2022/09/19 06:54:06;;;;;;;12.07;4.00;;;;;;;18.34;100.00;98807.25;5021576;28;20693;-62
2022/09/19 07:00:00;;;;;;;12.33;4.10;;;;;;;18.25;100.00;98813.22;5021898;28;20277;-63
2022/09/19 07:06:59;;;;;;;7.65;3.50;;;;;;;18.17;100.00;98873.69;5020825;28;20281;-62
2022/09/19 07:09:38;;;;;;;6.63;3.57;;;;;;;18.04;100.00;98869.25;4973234;28;20278;-62
2022/09/19 07:12:22;;;;;;;8.00;3.73;;;;;;;17.93;100.00;98855.97;5020456;28;20273;-63
2022/09/19 07:15:07;;;;;;;11.83;4.10;;;;;;;17.48;100.00;98807.94;5035392;28;20683;-62
2022/09/19 07:18:25;;;;;;;6.00;3.97;;;;;;;17.89;100.00;98900.22;5012266;28;20351;-63
2022/09/19 07:21:47;;;;;;;5.07;3.40;;;;;;;17.79;100.00;98928.19;5039999;28;20644;-63
2022/09/19 07:25:04;;;;;;;7.50;3.07;;;;;;;17.69;100.00;98906.00;5001930;28;20276;-64
2022/09/19 07:28:08;;;;;;;7.23;3.40;;;;;;;17.63;100.00;98890.56;4981158;28;20306;-62
2022/09/19 07:33:58;;;;;;;7.50;3.97;;;;;;;17.39;100.00;98829.66;4981281;28;20294;-63
2022/09/19 07:36:39;;;;;;;9.30;3.27;;;;;;;17.41;100.00;98859.47;4981863;28;20308;-64
2022/09/19 07:39:24;;;;;;;6.23;3.00;;;;;;;17.35;100.00;98859.88;4980692;28;20283;-63
2022/09/19 07:42:26;;;;;;;5.70;2.77;;;;;;;17.29;99.14;98876.97;4981217;28;20298;-63
2022/09/19 07:45:19;;;;;;;;;;;;;;;17.22;98.47;98871.25;4952335;28;20453;-64
2022/09/19 07:48:12;;;;;;;7.80;3.50;;;;;;;17.17;98.31;98854.88;4980116;28;19918;-64
2022/09/19 07:54:27;;;;;;;8.43;3.47;;;;;;;16.99;97.60;98841.06;4970436;28;20102;-62
2022/09/19 07:57:38;;;;;;;6.03;3.30;;;;;;;16.87;96.94;98833.13;4952819;28;20334;-63
2022/09/19 08:00:17;;;;;;;8.07;3.30;;;;;;;16.82;96.43;98817.56;4981016;28;20643;-63
2022/09/19 08:03:22;;;;;;;5.70;3.13;;;;;;;16.81;95.58;98829.94;4905877;29;20570;-64
2022/09/19 08:09:32;;;;;;;7.40;2.67;;;;;;;16.68;93.19;98860.66;4923332;29;20361;-63
2022/09/19 08:12:22;;;;;;;10.43;4.00;;;;;;;16.28;91.75;98830.69;4908852;29;20281;-64
2022/09/19 08:15:01;;;;;;;6.57;2.87;;;;;;;16.57;91.57;98905.31;4922261;29;20312;-65
2022/09/19 08:18:04;;;;;;;7.13;2.53;;;;;;;16.52;91.50;98881.00;4942085;28;20623;-63
2022/09/19 08:20:54;;;;;;;8.47;2.80;;;;;;;16.38;91.49;98839.72;5008534;28;20291;-66
2022/09/19 08:23:53;;;;;;;6.33;2.73;;;;;;;16.27;91.76;98835.09;5001301;28;20289;-64
2022/09/19 08:26:56;;;;;;;5.47;2.40;;;;;;;16.21;91.38;98834.66;5010637;28;20336;-64
2022/09/19 08:29:38;;;;;;;3.93;2.47;;;;;;;16.15;91.03;98872.78;5009267;28;20294;-63
2022/09/19 08:32:40;;;;;;;7.27;2.33;;;;;;;16.02;90.32;98846.31;4987536;28;20292;-67
2022/09/19 08:35:27;;;;;;;5.20;2.53;;;;;;;16.10;90.56;98870.44;5051759;28;20294;-64
2022/09/19 08:41:24;;;;;;;6.70;2.77;;;;;;;16.14;90.52;98839.44;5061119;28;20276;-62
2022/09/19 08:44:30;;;;;;;6.03;2.37;;;;;;;16.10;90.51;98870.44;5060597;28;20325;-65
2022/09/19 08:47:29;;;;;;;12.60;2.90;;;;;;;16.05;90.95;98866.34;5060793;28;20280;-66
2022/09/19 08:50:13;;;;;;;6.20;2.57;;;;;;;15.98;91.35;98870.34;5057997;28;20294;-65
2022/09/19 08:56:23;;;;;;;9.10;3.07;;;;;;;15.68;91.22;98821.16;5057721;28;20292;-64
2022/09/19 08:59:26;;;;;;;5.80;2.47;;;;;;;15.73;91.19;98856.00;5059850;28;20296;-62
2022/09/19 09:02:15;;;;;;;6.37;2.73;;;;;;;15.89;91.54;98895.44;5060195;28;20307;-64
2022/09/19 09:08:21;;;;;;;7.72;2.60;;;;;;;15.78;93.00;98869.75;5038174;28;20619;-63
2022/09/19 09:11:31;;;;;;;8.90;2.60;;;;;;;15.71;92.80;98873.69;4987486;28;20119;-63
2022/09/19 09:25:33;;;;;;;3.10;2.20;;;;;;;15.41;90.83;98777.13;5005049;28;20344;-64
2022/09/19 09:28:14;;;;;;;6.40;2.30;;;;;;;15.45;90.34;98799.69;5006352;28;20272;-64
2022/09/19 09:31:14;;;;;;;6.88;2.63;;;;;;;15.23;90.88;98783.50;5032104;28;20419;-64
2022/09/19 09:34:28;;;;;;;6.37;2.60;;;;;;;15.54;90.95;98820.19;5060044;28;20245;-64
2022/09/19 09:37:32;;;;;;;14.43;6.93;;;;;;;15.51;91.52;98817.75;5058647;28;20283;-65
2022/09/19 09:43:45;;;;;;;12.30;6.23;;;;;;;15.43;91.52;98812.09;5060086;28;20307;-65
2022/09/19 09:46:29;;;;;;;20.30;11.50;;;;;;;15.52;91.79;98826.47;5055336;28;20284;-64
2022/09/19 09:50:13;;;;;;;8.93;2.23;;;;;;;15.37;90.74;98838.78;5055775;28;20280;-63
2022/09/19 09:53:13;;;;;;;10.50;2.33;;;;;;;15.27;91.44;98858.66;5057517;28;20298;-61
2022/09/19 10:03:34;;;;;;;7.40;2.70;;;;;;;15.02;93.27;98885.53;5059684;28;20065;-64
2022/09/19 10:09:07;;;;;;;5.83;3.00;;;;;;;15.02;96.93;98854.81;5063887;28;20378;-65
2022/09/19 10:15:34;;;;;;;6.53;3.20;;;;;;;15.08;97.99;98822.91;5062463;28;20573;-62
2022/09/19 10:18:21;;;;;;;5.47;3.17;;;;;;;15.07;98.08;98826.47;5030389;28;20361;-64
2022/09/19 10:21:24;;;;;;;4.37;2.80;;;;;;;15.00;97.96;98830.41;5020177;28;20355;-64
2022/09/19 10:24:50;;;;;;;4.83;3.20;;;;;;;14.88;98.51;98820.59;5043683;28;20311;-63
2022/09/19 10:27:29;;;;;;;8.63;3.43;;;;;;;14.99;98.86;98830.47;5061400;28;20288;-63
2022/09/19 10:30:18;;;;;;;9.80;4.07;;;;;;;14.88;99.18;98805.66;5064132;28;20287;-64
2022/09/19 10:33:26;;;;;;;10.80;4.13;;;;;;;15.05;99.38;98790.66;5064026;28;20084;-63
2022/09/19 10:36:35;;;;;;;8.27;3.53;;;;;;;15.04;99.67;98768.78;5062765;28;20291;-61
2022/09/19 10:39:19;;;;;;;7.73;3.20;;;;;;;15.04;99.54;98779.28;5062309;28;20296;-64
2022/09/19 10:42:24;;;;;;;10.47;2.93;;;;;;;15.02;99.48;98748.75;5063542;28;20291;-64
2022/09/19 10:45:17;;;;;;;9.37;2.50;;;;;;;14.90;98.95;98734.53;5063490;28;20890;-65
2022/09/19 10:47:52;;;;;;;7.73;2.40;;;;;;;15.06;98.61;98761.63;5063331;28;20560;-66
2022/09/19 10:50:36;;;;;;;3.87;2.40;;;;;;;14.98;98.20;98763.03;5063151;28;20355;-62
2022/09/19 10:53:45;;;;;;;7.82;3.35;;;;;;;14.86;98.29;98775.09;5011765;28;20398;-62
2022/09/19 10:56:29;;;;;;;10.17;3.20;;;;;;;14.85;98.49;98794.44;5060572;28;20044;-65
2022/09/19 10:59:10;;;;;;;5.53;2.97;;;;;;;14.83;99.06;98796.34;5060888;28;20311;-65
2022/09/19 11:02:25;;;;;;;8.73;3.43;;;;;;;14.87;99.23;98813.59;5060713;28;20294;-64
2022/09/19 11:05:14;;;;;;;10.80;3.33;;;;;;;14.92;99.42;98827.34;5061614;28;20381;-64
2022/09/19 11:08:08;;;;;;;7.27;3.50;;;;;;;15.01;99.36;98833.88;5063271;28;20426;-63
2022/09/19 11:11:04;;;;;;;15.30;3.50;;;;;;;15.02;99.47;98828.50;5062370;28;20565;-61
2022/09/19 11:14:08;;;;;;;11.77;5.63;;;;;;;15.04;99.65;98829.28;5063487;28;21739;-65
2022/09/19 11:17:29;;;;;;;10.77;4.00;;;;;;;14.98;100.00;98827.00;5072910;28;20342;-64
2022/09/19 11:23:56;;;;;;;8.40;3.50;;;;;;;14.83;100.00;98801.59;5070826;28;20310;-63
2022/09/19 11:27:03;;;;;;;7.77;3.87;;;;;;;14.71;100.00;98791.78;5085403;28;20307;-64
2022/09/19 11:29:57;;;;;;;6.00;3.90;;;;;;;14.72;100.00;98793.44;5072576;28;20286;-61
2022/09/19 11:33:00;;;;;;;7.53;3.95;;;;;;;14.76;100.00;98813.38;5073742;28;20348;-62
2022/09/19 11:35:55;;;;;;;10.20;4.83;;;;;;;14.85;100.00;98818.09;5029610;28;20176;-61
2022/09/19 11:39:00;;;;;;;13.83;7.63;;;;;;;14.88;100.00;98825.84;5032962;28;20315;-63
2022/09/19 11:42:20;;;;;;;15.80;7.73;;;;;;;14.80;100.00;98799.09;5030467;28;20371;-61
2022/09/19 11:45:17;;;;;;;11.45;3.88;;;;;;;14.91;100.00;98815.13;4998083;28;20300;-65
2022/09/19 11:48:16;;;;;;;14.03;3.50;;;;;;;14.94;100.00;98814.97;5029829;28;20330;-63
2022/09/19 11:51:13;;;;;;;13.13;4.13;;;;;;;14.91;100.00;98809.88;5029802;28;20575;-63
2022/09/19 11:54:17;;;;;;;8.10;3.47;;;;;;;14.92;100.00;98801.03;4999438;28;20296;-61
2022/09/19 11:57:18;;;;;;;7.63;3.03;;;;;;;14.91;100.00;98788.00;4997899;28;20280;-60
2022/09/19 12:00:37;;;;;;;8.63;3.00;;;;;;;14.88;100.00;98773.25;5031844;28;20320;-60
2022/09/19 12:03:59;;;;;;;6.83;2.73;;;;;;;14.84;100.00;98766.47;5030131;28;20300;-62
2022/09/19 12:07:10;;;;;;;6.90;2.73;;;;;;;14.89;100.00;98764.41;5001761;28;20292;-60
2022/09/19 12:10:25;;;;;;;8.17;2.73;;;;;;;14.88;100.00;98746.94;5030409;28;20316;-62
2022/09/19 12:13:31;;;;;;;10.10;2.60;;;;;;;14.87;100.00;98734.72;5059810;28;20287;-60
2022/09/19 12:16:29;;;;;;;7.07;2.97;;;;;;;14.85;99.81;98747.09;5071401;28;20287;-63
2022/09/19 12:19:26;;;;;;;9.20;2.57;;;;;;;14.84;99.74;98755.94;5033574;28;20279;-61
2022/09/19 12:22:15;;;;;;;6.87;2.57;;;;;;;14.83;99.56;98754.25;5048806;28;20290;-60
2022/09/19 12:25:18;;;;;;;6.90;2.50;;;;;;;14.81;99.53;98750.88;5070762;28;20321;-61
2022/09/19 12:28:13;;;;;;;7.70;2.57;;;;;;;14.47;99.60;98689.66;5036060;28;20288;-59
2022/09/19 12:31:08;;;;;;;11.20;2.23;;;;;;;14.78;99.62;98751.06;5070643;28;20294;-63
2022/09/19 12:34:10;;;;;;;5.57;2.27;;;;;;;14.80;99.71;98725.50;5047493;28;20354;-62
2022/09/19 12:36:50;;;;;;;7.67;2.27;;;;;;;14.75;99.65;98719.66;5069881;28;20277;-60
2022/09/19 12:40:03;;;;;;;8.43;1.93;;;;;;;14.67;99.35;98710.44;5071385;28;20556;-62
2022/09/19 12:42:59;;;;;;;6.33;2.03;;;;;;;14.66;98.85;98700.00;5072284;28;20294;-60
2022/09/19 12:46:16;;;;;;;4.80;2.00;;;;;;;14.61;98.49;98697.66;5071367;28;20306;-63
2022/09/19 12:49:18;;;;;;;3.43;2.03;;;;;;;14.55;97.76;98687.50;4989918;28;20278;-60
2022/09/19 12:52:27;;;;;;;7.20;2.50;;;;;;;14.56;97.24;98665.53;4951353;29;20305;-63
2022/09/19 12:55:23;;;;;;;8.17;2.33;;;;;;;14.74;97.26;98694.31;4970307;28;20050;-63
2022/09/19 13:01:27;;;;;;;6.60;2.57;;;;;;;14.73;97.03;98690.00;4970364;28;20279;-64
2022/09/19 13:04:18;;;;;;;10.23;1.93;;;;;;;14.70;96.92;98711.19;4970920;28;20310;-60
2022/09/19 13:07:04;;;;;;;6.50;2.30;;;;;;;14.58;96.72;98702.25;4967580;28;20325;-61
2022/09/19 13:09:56;;;;;;;4.23;2.37;;;;;;;14.54;97.29;98698.94;4948857;29;20289;-62
2022/09/19 13:13:00;;;;;;;5.33;2.00;;;;;;;14.50;97.91;98686.03;4963856;28;20282;-61
2022/09/19 13:15:43;;;;;;;4.83;2.27;;;;;;;14.52;98.36;98679.75;4963913;29;20460;-59
2022/09/19 13:28:34;;;;;;;5.07;1.77;;;;;;;14.46;98.89;98619.66;5002421;28;20517;-60
2022/09/19 13:31:22;;;;;;;5.30;1.90;;;;;;;14.42;99.01;98629.50;5046189;28;20298;-61
2022/09/19 13:34:40;;;;;;;8.70;2.20;;;;;;;14.46;99.35;98652.03;5063444;28;20291;-61
2022/09/19 13:37:56;;;;;;;10.80;2.00;;;;;;;14.48;99.58;98651.97;5030486;28;20355;-60
2022/09/19 13:41:16;;;;;;;7.20;1.90;;;;;;;14.48;99.72;98662.47;5067299;28;20299;-61
2022/09/19 13:44:10;;;;;;;8.00;2.27;;;;;;;14.44;99.68;98674.09;5031980;28;20611;-61
2022/09/19 13:47:23;;;;;;;7.25;2.20;;;;;;;14.39;100.00;98655.13;5066673;28;20457;-62
2022/09/19 13:50:25;;;;;;;4.47;1.80;;;;;;;14.35;100.00;98650.97;5066905;28;20444;-61
2022/09/19 13:53:14;;;;;;;6.63;2.05;;;;;;;14.36;100.00;98631.66;5067242;28;20502;-60
2022/09/19 13:56:04;;;;;;;7.90;2.00;;;;;;;14.33;100.00;98623.94;5034350;28;20364;-62
2022/09/19 13:58:48;;;;;;;4.83;2.00;;;;;;;14.34;100.00;98625.63;5067194;28;20287;-61
2022/09/19 14:01:54;;;;;;;5.90;2.33;;;;;;;14.37;100.00;98609.69;5067087;28;20318;-63
2022/09/19 14:08:00;;;;;;;8.43;1.80;;;;;;;14.27;100.00;98582.25;5064703;28;20304;-63
2022/09/19 14:11:05;;;;;;;7.37;2.53;;;;;;;14.42;100.00;98626.03;5066860;28;20279;-63
2022/09/19 14:13:55;;;;;;;6.27;2.03;;;;;;;14.38;100.00;98608.75;5064909;28;20295;-62
2022/09/19 14:17:11;;;;;;;7.97;2.20;;;;;;;14.36;100.00;98613.25;4989009;28;20563;-62
2022/09/19 14:20:05;;;;;;;4.87;1.87;;;;;;;13.89;100.00;98517.88;5050327;28;20337;-64
2022/09/19 14:22:45;;;;;;;6.33;2.47;;;;;;;14.31;100.00;98591.66;5066775;28;20288;-63
2022/09/19 14:25:46;;;;;;;7.23;1.90;;;;;;;14.26;100.00;98567.44;5066945;28;20345;-61
2022/09/19 14:28:52;;;;;;;8.27;2.03;;;;;;;14.28;100.00;98578.69;5031922;28;20322;-63
2022/09/19 14:31:53;;;;;;;5.83;1.83;;;;;;;14.26;100.00;98567.44;5065673;28;20279;-61
2022/09/19 14:35:15;;;;;;;5.78;2.03;;;;;;;14.21;100.00;98544.06;5005406;28;20347;-62
2022/09/19 14:38:41;;;;;;;7.00;2.13;;;;;;;14.19;100.00;98544.13;5005619;28;20051;-62
2022/09/19 14:41:43;;;;;;;7.43;1.77;;;;;;;14.17;100.00;98525.00;5005196;28;20294;-62
2022/09/19 14:45:12;;;;;;;4.77;1.70;;;;;;;14.22;100.00;98517.69;5005058;28;20314;-63
2022/09/19 14:48:07;;;;;;;3.00;1.83;;;;;;;14.23;100.00;98529.91;5005123;28;20278;-62
2022/09/19 14:51:17;;;;;;;8.53;1.93;;;;;;;14.23;100.00;98523.81;5003527;28;20286;-62
2022/09/19 14:54:19;;;;;;;4.73;1.90;;;;;;;14.21;100.00;98520.41;5003566;28;20316;-63
2022/09/19 14:57:20;;;;;;;5.85;1.65;;;;;;;14.19;100.00;98517.88;5004933;28;20294;-61
2022/09/19 15:00:44;;;;;;;5.03;2.23;;;;;;;14.15;100.00;98511.13;5005417;28;20050;-61
2022/09/19 15:03:56;;;;;;;7.20;2.10;;;;;;;14.13;100.00;98506.91;5005059;28;20277;-62
2022/09/19 15:07:06;;;;;;;4.47;2.03;;;;;;;14.13;100.00;98507.75;5004976;28;20313;-61
2022/09/19 15:10:00;;;;;;;8.80;2.60;;;;;;;14.05;100.00;98467.94;5004662;28;20292;-62
2022/09/19 15:12:41;;;;;;;4.43;2.30;;;;;;;14.11;100.00;98464.13;5061720;28;20318;-62
2022/09/19 15:16:05;;;;;;;5.83;2.30;;;;;;;14.13;100.00;98443.88;4996116;28;20313;-64
2022/09/19 15:18:56;;;;;;;10.00;2.67;;;;;;;14.13;100.00;98460.47;5062572;28;20296;-61
2022/09/19 15:22:05;;;;;;;6.00;2.20;;;;;;;14.14;100.00;98446.38;5030714;28;20284;-63
2022/09/19 15:24:50;;;;;;;;;;;;;;;14.16;100.00;98444.50;5049597;28;20611;-62
2022/09/19 15:28:11;;;;;;;8.47;2.30;;;;;;;14.18;100.00;98437.38;5064940;28;20170;-62
2022/09/19 15:30:58;;;;;;;10.33;2.67;;;;;;;14.12;100.00;98400.97;5061537;28;20296;-61
2022/09/19 15:37:03;;;;;;;4.27;2.63;;;;;;;14.17;100.00;98430.44;5065327;28;20359;-59
2022/09/19 15:43:38;;;;;;;6.77;2.57;;;;;;;14.07;100.00;98408.28;5002854;28;20312;-62
2022/09/19 15:46:49;;;;;;;5.87;2.40;;;;;;;14.15;100.00;98416.56;4990546;28;20341;-61
2022/09/19 15:50:54;;;;;;;8.00;2.67;;;;;;;14.11;100.00;98409.81;5003812;28;20308;-62
2022/09/19 15:53:44;;;;;;;7.73;2.50;;;;;;;14.17;100.00;98398.91;4964801;29;20287;-63